Blanchard Township, Maine
Current Conditions -  °F | °C
As of 5:53 PM on Tuesday 21 Oct 2014 (Local Time) from KMLT Reporting Station
Light Rain Light Rain  
Wind Chill: 44°   Ceiling: 5000
Heat Index: 46°   Visibility: 10mi
Dew Point: 37°   Wind: 5mph
Humidity: 71%   Direction: 30°NNE
Pressure: 30.16"   Gusts: NA
Location:  45.3122°N, 69.5439°W
Report Text: KMLT 212153Z AUTO 03004KT 10SM -RA BKN050 OVC060 08/03 A3016 RMK AO2 RAB32 SLP222 P0000 T00780028
Loading
Personal Weather Stations






























Interactive Weather Map
Tropical Storm Tracking
New forecast layout! Learn more

10-Day Weather Forecast

Advertisements
Track Severe Weather on mobile